createdAt,value
2023-04-15T00:01:06.026Z,5.14
2023-04-15T00:04:09.646Z,5.20
2023-04-15T00:07:13.022Z,5.26
2023-04-15T00:10:16.244Z,5.23
2023-04-15T00:13:19.143Z,5.27
2023-04-15T00:16:22.661Z,5.19
2023-04-15T00:19:25.644Z,5.11
2023-04-15T00:22:28.761Z,5.23
2023-04-15T00:25:31.869Z,5.14
2023-04-15T00:28:35.516Z,5.24
2023-04-15T00:31:39.833Z,5.20
2023-04-15T00:34:43.069Z,5.27
2023-04-15T00:37:46.577Z,5.31
2023-04-15T00:40:50.088Z,5.39
2023-04-15T00:43:53.090Z,5.32
2023-04-15T00:46:57.401Z,5.17
2023-04-15T00:50:00.295Z,5.11
2023-04-15T00:53:03.536Z,5.13
2023-04-15T00:56:07.095Z,5.19
2023-04-15T00:59:10.402Z,5.10
2023-04-15T01:02:13.432Z,5.15
2023-04-15T01:05:18.638Z,5.29
2023-04-15T01:08:21.610Z,5.47
2023-04-15T01:11:25.406Z,5.48
2023-04-15T01:14:29.194Z,5.49
2023-04-15T01:17:33.422Z,5.51
2023-04-15T01:20:36.539Z,5.58
2023-04-15T01:23:40.500Z,5.63
2023-04-15T01:26:44.660Z,5.77
2023-04-15T01:29:48.383Z,5.77
2023-04-15T01:32:52.010Z,5.81
2023-04-15T01:35:55.880Z,5.86
2023-04-15T01:39:01.234Z,5.75
2023-04-15T01:42:04.661Z,5.85
2023-04-15T01:45:08.429Z,5.85
2023-04-15T01:48:14.044Z,5.83
2023-04-15T01:51:16.905Z,5.95
2023-04-15T01:54:20.232Z,5.98
2023-04-15T01:57:23.327Z,6.04
2023-04-15T02:00:27.693Z,6.02
2023-04-15T02:03:31.041Z,5.90
2023-04-15T02:06:34.319Z,5.82
2023-04-15T02:09:38.812Z,5.96
2023-04-15T02:12:44.171Z,5.92
2023-04-15T02:15:49.053Z,5.93
2023-04-15T02:18:55.141Z,5.90
2023-04-15T02:21:58.035Z,5.85
2023-04-15T02:25:02.135Z,5.72
2023-04-15T02:28:06.475Z,5.78
2023-04-15T02:31:09.838Z,5.84
2023-04-15T02:34:14.493Z,5.83
2023-04-15T02:37:20.575Z,5.70
2023-04-15T02:40:23.635Z,5.83
2023-04-15T02:43:26.684Z,5.81
2023-04-15T02:46:29.608Z,5.81
2023-04-15T02:49:33.970Z,5.71
2023-04-15T02:52:36.801Z,5.82
2023-04-15T02:55:40.386Z,5.83
2023-04-15T02:58:45.274Z,5.81
2023-04-15T03:01:48.639Z,5.94
2023-04-15T03:04:51.956Z,5.97
2023-04-15T03:07:55.595Z,6.02
2023-04-15T03:11:01.022Z,6.23
2023-04-15T03:14:05.540Z,6.22
2023-04-15T03:17:08.872Z,5.98
2023-04-15T03:20:14.539Z,6.07
2023-04-15T03:23:17.813Z,6.12
2023-04-15T03:26:27.726Z,6.13
2023-04-15T03:29:31.252Z,6.15
2023-04-15T03:32:35.283Z,6.16
2023-04-15T03:35:38.224Z,6.15
2023-04-15T03:38:41.497Z,6.22
2023-04-15T03:41:44.480Z,6.25
2023-04-15T03:44:47.668Z,6.36
2023-04-15T03:47:50.719Z,6.33
2023-04-15T03:50:54.227Z,6.41
2023-04-15T03:53:57.196Z,6.37
2023-04-15T03:57:00.391Z,6.41
2023-04-15T04:00:03.334Z,6.51
2023-04-15T04:03:14.890Z,6.45
2023-04-15T04:06:18.317Z,6.49
2023-04-15T04:09:21.214Z,6.55
2023-04-15T04:12:24.381Z,6.50
2023-04-15T04:15:27.394Z,6.44
2023-04-15T04:18:34.908Z,6.49
2023-04-15T04:21:39.779Z,6.47
2023-04-15T04:24:44.091Z,6.46
2023-04-15T04:27:47.227Z,6.42
2023-04-15T04:30:51.206Z,6.43
2023-04-15T04:33:54.088Z,6.48
2023-04-15T04:36:57.420Z,6.32
2023-04-15T04:40:00.496Z,6.26
2023-04-15T04:43:03.688Z,6.06
2023-04-15T04:46:06.599Z,6.10
2023-04-15T04:49:10.140Z,6.09
2023-04-15T04:52:13.311Z,6.06
2023-04-15T04:55:16.868Z,6.07
2023-04-15T04:58:19.773Z,6.15
2023-04-15T05:01:23.078Z,6.25
2023-04-15T05:04:26.652Z,6.33
2023-04-15T05:07:29.869Z,6.49
2023-04-15T05:10:32.989Z,6.64
2023-04-15T05:13:38.843Z,6.63
2023-04-15T05:16:42.245Z,6.88
2023-04-15T05:19:45.566Z,6.81
2023-04-15T05:22:48.560Z,7.05
2023-04-15T05:25:52.381Z,7.05
2023-04-15T05:28:55.258Z,7.08
2023-04-15T05:31:58.541Z,7.20
2023-04-15T05:35:01.710Z,7.28
2023-04-15T05:38:04.853Z,7.39
2023-04-15T05:41:07.863Z,7.47
2023-04-15T05:44:11.185Z,7.49
2023-04-15T05:47:14.086Z,7.85
2023-04-15T05:50:17.336Z,8.08
2023-04-15T05:53:20.858Z,8.05
2023-04-15T05:56:24.148Z,8.27
2023-04-15T05:59:28.553Z,8.50
2023-04-15T06:02:33.476Z,8.62
2023-04-15T06:05:36.907Z,8.72
2023-04-15T06:08:40.109Z,8.68
2023-04-15T06:11:43.293Z,8.77
2023-04-15T06:14:46.238Z,8.59
2023-04-15T06:17:49.469Z,8.47
2023-04-15T06:20:52.415Z,8.71
2023-04-15T06:23:56.759Z,8.70
2023-04-15T06:26:59.679Z,8.34
2023-04-15T06:30:03.065Z,8.16
2023-04-15T06:33:06.437Z,8.22
2023-04-15T06:36:09.728Z,8.35
2023-04-15T06:39:12.582Z,8.69
2023-04-15T06:42:16.322Z,8.97
2023-04-15T06:45:20.695Z,8.79
2023-04-15T06:48:26.597Z,9.05
2023-04-15T06:51:29.415Z,9.17
2023-04-15T06:54:34.060Z,9.15
2023-04-15T06:57:37.072Z,9.33
2023-04-15T07:00:40.813Z,9.44
2023-04-15T07:03:43.724Z,9.36
2023-04-15T07:06:47.996Z,9.54
2023-04-15T07:09:51.423Z,9.64
2023-04-15T07:12:54.854Z,9.64
2023-04-15T07:15:57.807Z,10.19
2023-04-15T07:19:01.368Z,10.14
2023-04-15T07:22:04.989Z,10.20
2023-04-15T07:25:09.112Z,10.41
2023-04-15T07:28:12.127Z,10.70
2023-04-15T07:31:16.644Z,10.48
2023-04-15T07:34:21.105Z,10.28
2023-04-15T07:37:25.760Z,10.27
2023-04-15T07:40:29.201Z,10.12
2023-04-15T07:43:32.865Z,10.44
2023-04-15T07:46:37.444Z,10.39
2023-04-15T07:49:43.424Z,10.09
2023-04-15T07:52:46.502Z,9.73
2023-04-15T07:55:49.825Z,10.00
2023-04-15T07:58:52.831Z,10.11
2023-04-15T08:01:56.249Z,10.44
2023-04-15T08:05:00.000Z,10.29
2023-04-15T08:08:03.103Z,9.99
2023-04-15T08:11:06.445Z,9.80
2023-04-15T08:14:09.386Z,9.91
2023-04-15T08:17:12.663Z,9.89
2023-04-15T08:20:15.656Z,9.51
2023-04-15T08:23:19.591Z,9.58
2023-04-15T08:26:23.031Z,9.67
2023-04-15T08:29:27.448Z,9.64
2023-04-15T08:32:31.624Z,9.78
2023-04-15T08:35:34.808Z,9.56
2023-04-15T08:38:37.792Z,9.65
2023-04-15T08:41:48.054Z,9.87
2023-04-15T08:44:52.047Z,9.97
2023-04-15T08:47:56.895Z,10.14
2023-04-15T08:51:00.266Z,10.13
2023-04-15T08:54:03.766Z,10.07
2023-04-15T08:57:06.937Z,10.13
2023-04-15T09:00:10.756Z,10.10
2023-04-15T09:03:13.919Z,10.28
2023-04-15T09:06:18.287Z,10.30
2023-04-15T09:09:21.196Z,11.15
2023-04-15T09:12:24.415Z,11.32
2023-04-15T09:15:30.105Z,10.89
2023-04-15T09:18:35.060Z,10.96
2023-04-15T09:21:37.906Z,10.78
2023-04-15T09:24:43.394Z,10.31
2023-04-15T09:27:51.093Z,10.72
2023-04-15T09:31:01.948Z,10.71
2023-04-15T09:34:07.034Z,11.01
2023-04-15T09:37:11.348Z,10.85
2023-04-15T09:40:14.469Z,10.72
2023-04-15T09:43:18.031Z,10.50
2023-04-15T09:46:21.150Z,10.54
2023-04-15T09:49:25.747Z,10.54
2023-04-15T09:52:29.138Z,10.38
2023-04-15T09:55:33.583Z,10.53
2023-04-15T09:58:38.912Z,10.60
2023-04-15T10:01:43.028Z,10.41
2023-04-15T10:04:48.809Z,10.32
2023-04-15T10:07:52.205Z,10.26
2023-04-15T10:10:56.252Z,10.24
2023-04-15T10:13:59.288Z,10.10
2023-04-15T10:17:03.554Z,10.22
2023-04-15T10:20:07.769Z,10.07
2023-04-15T10:23:13.366Z,10.34
2023-04-15T10:26:20.127Z,10.69
2023-04-15T10:29:27.886Z,11.09
2023-04-15T10:32:31.306Z,11.42
2023-04-15T10:35:34.718Z,11.03
2023-04-15T10:38:42.646Z,11.00
2023-04-15T10:41:45.884Z,10.90
2023-04-15T10:44:53.527Z,10.97
2023-04-15T10:47:58.212Z,11.20
2023-04-15T10:51:02.641Z,11.21
2023-04-15T10:54:10.638Z,11.14
2023-04-15T10:57:24.146Z,11.16
2023-04-15T11:00:30.567Z,11.22
2023-04-15T11:03:41.933Z,11.09
2023-04-15T11:06:46.629Z,10.89
2023-04-15T11:09:49.493Z,11.25
2023-04-15T11:12:58.092Z,10.78
2023-04-15T11:16:03.383Z,10.65
2023-04-15T11:19:07.186Z,10.75
2023-04-15T11:22:11.078Z,11.44
2023-04-15T11:25:26.723Z,12.33
2023-04-15T11:28:30.620Z,11.66
2023-04-15T11:31:33.813Z,11.53
2023-04-15T11:34:37.794Z,11.48
2023-04-15T11:37:40.946Z,11.55
2023-04-15T11:40:46.797Z,11.63
2023-04-15T11:43:51.319Z,10.83
2023-04-15T11:46:56.640Z,11.40
2023-04-15T11:50:15.168Z,11.90
2023-04-15T11:53:18.069Z,12.08
2023-04-15T11:56:25.830Z,12.07
2023-04-15T11:59:45.323Z,11.88
2023-04-15T12:02:49.423Z,11.33
2023-04-15T12:06:12.510Z,11.13
2023-04-15T12:09:20.443Z,11.42
2023-04-15T12:12:28.740Z,11.69
2023-04-15T12:15:31.665Z,11.71
2023-04-15T12:18:34.884Z,11.68
2023-04-15T12:21:40.099Z,11.48
2023-04-15T12:24:44.522Z,11.60
2023-04-15T12:27:54.761Z,12.11
2023-04-15T12:30:58.022Z,12.31
2023-04-15T12:34:01.330Z,11.44
2023-04-15T12:37:06.467Z,11.21
2023-04-15T12:40:09.707Z,10.76
2023-04-15T12:43:12.860Z,10.68
2023-04-15T12:46:15.967Z,10.77
2023-04-15T12:49:21.112Z,10.63
2023-04-15T12:52:25.254Z,10.81
2023-04-15T12:55:28.633Z,10.74
2023-04-15T12:58:31.703Z,10.58
2023-04-15T13:01:34.965Z,10.57
2023-04-15T13:04:37.860Z,10.69
2023-04-15T13:07:41.110Z,10.45
2023-04-15T13:10:44.074Z,10.38
2023-04-15T13:13:47.382Z,10.68
2023-04-15T13:16:50.645Z,12.16
2023-04-15T13:19:53.876Z,13.12
2023-04-15T13:22:56.951Z,13.71
2023-04-15T13:26:00.344Z,13.39
2023-04-15T13:29:03.282Z,13.36
2023-04-15T13:32:07.508Z,12.46
2023-04-15T13:35:10.478Z,11.86
2023-04-15T13:38:13.597Z,11.91
2023-04-15T13:41:16.629Z,12.23
2023-04-15T13:44:22.106Z,12.02
2023-04-15T13:47:25.490Z,12.03
2023-04-15T13:50:29.209Z,12.24
2023-04-15T13:53:37.941Z,12.33
2023-04-15T13:56:42.451Z,12.02
2023-04-15T13:59:45.842Z,11.55
2023-04-15T14:02:49.206Z,11.71
2023-04-15T14:05:56.136Z,11.89
2023-04-15T14:08:59.198Z,12.55
2023-04-15T14:12:02.671Z,12.79
2023-04-15T14:15:06.228Z,13.28
2023-04-15T14:18:09.597Z,14.81
2023-04-15T14:21:12.542Z,14.96
2023-04-15T14:24:16.449Z,14.04
2023-04-15T14:27:19.569Z,13.13
2023-04-15T14:30:23.366Z,13.45
2023-04-15T14:33:26.466Z,13.60
2023-04-15T14:36:29.884Z,15.24
2023-04-15T14:39:32.956Z,16.13
2023-04-15T14:42:37.003Z,15.27
2023-04-15T14:45:42.208Z,15.58
2023-04-15T14:48:48.029Z,14.85
2023-04-15T14:51:51.237Z,13.31
2023-04-15T14:54:54.367Z,13.48
2023-04-15T14:57:57.343Z,13.10
2023-04-15T15:01:02.076Z,12.38
2023-04-15T15:04:05.225Z,12.21
2023-04-15T15:07:08.424Z,12.00
2023-04-15T15:10:11.288Z,11.56
2023-04-15T15:13:15.109Z,11.37
2023-04-15T15:16:18.600Z,11.10
2023-04-15T15:19:22.514Z,11.02
2023-04-15T15:22:26.282Z,10.92
2023-04-15T15:25:29.580Z,10.73
2023-04-15T15:28:32.530Z,10.63
2023-04-15T15:31:36.256Z,10.74
2023-04-15T15:34:39.429Z,10.95
2023-04-15T15:37:43.458Z,10.98
2023-04-15T15:40:46.414Z,10.86
2023-04-15T15:43:49.725Z,11.01
2023-04-15T15:46:52.732Z,10.93
2023-04-15T15:49:55.863Z,11.02
2023-04-15T15:52:59.091Z,10.77
2023-04-15T15:56:05.469Z,10.67
2023-04-15T15:59:09.158Z,10.68
2023-04-15T16:02:14.551Z,10.75
2023-04-15T16:05:18.163Z,11.04
2023-04-15T16:08:21.584Z,10.79
2023-04-15T16:11:24.954Z,11.06
2023-04-15T16:14:28.411Z,11.01
2023-04-15T16:17:32.620Z,11.05
2023-04-15T16:20:35.838Z,10.91
2023-04-15T16:23:39.120Z,10.86
2023-04-15T16:26:42.403Z,11.06
2023-04-15T16:29:45.756Z,10.58
2023-04-15T16:32:48.856Z,11.11
2023-04-15T16:35:53.121Z,10.84
2023-04-15T16:38:56.810Z,10.79
2023-04-15T16:42:00.483Z,10.53
2023-04-15T16:45:03.413Z,10.46
2023-04-15T16:48:12.386Z,10.50
2023-04-15T16:51:15.602Z,10.07
2023-04-15T16:54:19.585Z,10.17
2023-04-15T16:57:22.520Z,10.32
2023-04-15T17:00:28.958Z,10.39
2023-04-15T17:03:32.376Z,10.25
2023-04-15T17:06:37.143Z,10.07
2023-04-15T17:09:40.577Z,10.25
2023-04-15T17:12:53.065Z,10.17
2023-04-15T17:15:56.287Z,9.99
2023-04-15T17:19:00.600Z,10.11
2023-04-15T17:25:25.751Z,9.71
2023-04-15T17:28:42.012Z,9.82
2023-04-15T17:35:02.042Z,9.73
2023-04-15T17:38:05.550Z,9.51
2023-04-15T17:41:10.696Z,9.30
2023-04-15T17:44:34.039Z,9.18
2023-04-15T17:47:37.229Z,9.20
2023-04-15T17:50:53.940Z,8.80
2023-04-15T17:53:57.117Z,8.82
2023-04-15T17:57:01.539Z,8.88
2023-04-15T18:00:06.286Z,8.69
2023-04-15T18:03:15.726Z,8.53
2023-04-15T18:06:22.555Z,8.50
2023-04-15T18:09:27.760Z,8.44
2023-04-15T18:12:31.567Z,8.44
2023-04-15T18:15:35.394Z,8.34
2023-04-15T18:18:39.736Z,8.24
2023-04-15T18:21:43.271Z,8.19
2023-04-15T18:24:47.419Z,7.98
2023-04-15T18:27:51.448Z,8.04
2023-04-15T18:30:57.115Z,7.99
2023-04-15T18:34:00.782Z,7.97
2023-04-15T18:37:08.070Z,7.94
2023-04-15T18:40:12.321Z,7.95
2023-04-15T18:43:16.276Z,7.95
2023-04-15T18:46:20.921Z,7.91
2023-04-15T18:49:24.773Z,7.87
2023-04-15T18:52:28.789Z,7.84
2023-04-15T18:55:34.988Z,7.85
2023-04-15T18:59:08.576Z,7.86
2023-04-15T19:02:03.686Z,7.87
2023-04-15T19:05:07.525Z,7.86
2023-04-15T19:08:13.170Z,7.87
2023-04-15T19:11:17.443Z,7.84
2023-04-15T19:14:21.844Z,7.83
2023-04-15T19:17:25.764Z,7.89
2023-04-15T19:20:29.837Z,7.89
2023-04-15T19:23:33.972Z,7.91
2023-04-15T19:26:39.239Z,7.93
2023-04-15T19:29:43.207Z,7.97
2023-04-15T19:32:47.295Z,7.99
2023-04-15T19:35:51.968Z,7.95
2023-04-15T19:38:56.791Z,8.00
2023-04-15T19:42:10.036Z,8.07
2023-04-15T19:45:14.156Z,8.12
2023-04-15T19:48:19.833Z,8.11
2023-04-15T19:51:24.319Z,8.10
2023-04-15T19:54:28.421Z,8.09
2023-04-15T19:57:34.649Z,8.09
2023-04-15T20:00:40.259Z,8.13
2023-04-15T20:03:44.546Z,8.12
2023-04-15T20:06:49.419Z,8.14
2023-04-15T20:09:54.073Z,8.13
2023-04-15T20:12:58.169Z,8.04
2023-04-15T20:16:02.786Z,7.95
2023-04-15T20:19:09.955Z,8.05
2023-04-15T20:22:13.817Z,7.97
2023-04-15T20:25:17.802Z,7.89
2023-04-15T20:28:25.364Z,8.00
2023-04-15T20:31:29.065Z,8.00
2023-04-15T20:34:32.488Z,8.00
2023-04-15T20:37:38.219Z,8.04
2023-04-15T20:40:43.692Z,7.96
2023-04-15T20:43:47.540Z,7.98
2023-04-15T20:46:52.720Z,8.02
2023-04-15T20:49:56.300Z,8.08
2023-04-15T20:53:00.132Z,8.07
2023-04-15T20:56:03.392Z,8.16
2023-04-15T20:59:07.080Z,8.14
2023-04-15T21:02:11.027Z,8.16
2023-04-15T21:05:14.750Z,8.14
2023-04-15T21:08:17.631Z,8.19
2023-04-15T21:11:38.776Z,8.22
2023-04-15T21:14:43.988Z,8.15
2023-04-15T21:17:48.596Z,8.10
2023-04-15T21:20:58.378Z,8.11
2023-04-15T21:24:01.578Z,8.11
2023-04-15T21:27:06.025Z,8.08
2023-04-15T21:30:11.142Z,8.06
2023-04-15T21:33:14.103Z,8.01
2023-04-15T21:36:18.432Z,7.98
2023-04-15T21:39:21.714Z,7.96
2023-04-15T21:42:25.034Z,7.98
2023-04-15T21:45:28.106Z,7.97
2023-04-15T21:48:31.767Z,7.95
2023-04-15T21:51:34.750Z,7.93
2023-04-15T21:54:38.189Z,7.92
2023-04-15T21:57:41.095Z,7.91
2023-04-15T22:00:44.381Z,7.92
2023-04-15T22:03:47.772Z,7.89
2023-04-15T22:06:52.335Z,7.82
2023-04-15T22:09:55.601Z,7.81
2023-04-15T22:13:02.882Z,7.77
2023-04-15T22:16:06.281Z,7.75
2023-04-15T22:19:10.824Z,7.73
2023-04-15T22:22:14.037Z,7.74
2023-04-15T22:25:17.401Z,7.74
2023-04-15T22:28:20.661Z,7.73
2023-04-15T22:31:23.576Z,7.73
2023-04-15T22:34:26.824Z,7.74
2023-04-15T22:37:30.892Z,7.69
2023-04-15T22:40:34.477Z,7.67
2023-04-15T22:43:37.472Z,7.49
2023-04-15T22:46:41.241Z,7.52
2023-04-15T22:49:45.079Z,7.62
2023-04-15T22:52:48.785Z,7.62
2023-04-15T22:55:52.120Z,7.65
2023-04-15T22:58:55.452Z,7.64
2023-04-15T23:01:59.536Z,7.64
2023-04-15T23:05:11.820Z,7.66
2023-04-15T23:08:16.474Z,7.66
2023-04-15T23:11:19.702Z,7.62
2023-04-15T23:14:23.181Z,7.57
2023-04-15T23:17:26.868Z,7.56
2023-04-15T23:20:29.813Z,7.53
2023-04-15T23:23:33.624Z,7.50
2023-04-15T23:26:36.514Z,7.46
2023-04-15T23:29:39.748Z,7.39
2023-04-15T23:32:42.838Z,7.33
2023-04-15T23:35:46.668Z,7.29
2023-04-15T23:38:49.549Z,7.28
2023-04-15T23:41:53.217Z,7.27
2023-04-15T23:44:56.413Z,7.32
2023-04-15T23:47:59.745Z,7.33
2023-04-15T23:51:02.798Z,7.32
2023-04-15T23:54:06.128Z,7.24
2023-04-15T23:57:09.146Z,7.33
